Time;durP1;ratioP1;P1;durP2;ratioP2;P2;SDS_P1;SDS_P2;PMS_P1;PMS_P2;Temp;Humidity;BMP_temperature;BMP_pressure;BME280_temperature;BME280_humidity;BME280_pressure;Samples;Min_cycle;Max_cycle;Signal;HPM_P1;HPM_P2
2023/03/20 00:02:04;;;;;;;;;;;;;;;7.69;51.55;96638.38;109230;1266;22486;-84
2023/03/20 00:04:34;;;;;;;;;;;;;;;7.72;51.37;96634.59;109194;1272;22569;-83
2023/03/20 00:07:04;;;;;;;;;;;;;;;7.70;51.24;96637.64;109186;1266;43731;-84
2023/03/20 00:09:34;;;;;;;;;;;;;;;7.74;51.06;96632.53;109180;1272;22833;-83
2023/03/20 00:12:04;;;;;;;;;;;;;;;7.76;51.10;96635.67;109229;1272;22551;-84
2023/03/20 00:14:35;;;;;;;;;;;;;;;7.73;51.18;96631.67;109229;1269;22903;-84
2023/03/20 00:17:10;;;;;;;;;;;;;;;7.72;51.24;96631.79;109207;1272;80696;-84
2023/03/20 00:19:39;;;;;;;;;;;;;;;7.74;51.02;96634.39;109251;1272;22450;-84
2023/03/20 00:22:09;;;;;;;;;;;;;;;7.78;50.88;96635.04;109212;1272;22583;-84
2023/03/20 00:24:39;;;;;;;;;;;;;;;7.76;50.92;96635.23;109229;1266;22551;-84
2023/03/20 00:27:12;;;;;;;;;;;;;;;7.76;51.01;96637.41;109239;1272;31062;-84
2023/03/20 00:29:41;;;;;;;;;;;;;;;7.84;50.87;96636.89;109232;1272;23392;-84
2023/03/20 00:32:12;;;;;;;;;;;;;;;7.87;50.86;96638.53;109268;1272;24407;-83
2023/03/20 00:34:42;;;;;;;;;;;;;;;7.87;50.71;96635.09;109225;1272;25389;-84
2023/03/20 00:37:11;;;;;;;;;;;;;;;7.92;50.58;96636.40;109156;1272;57765;-84
2023/03/20 00:39:41;;;;;;;;;;;;;;;7.97;50.53;96632.49;109239;1272;22500;-84
2023/03/20 00:42:18;;;;;;;;;;;;;;;7.93;50.73;96635.77;109205;1272;25494;-84
2023/03/20 00:44:51;;;;;;;;;;;;;;;7.85;50.89;96635.36;109144;1272;23198;-85
2023/03/20 00:47:22;;;;;;;;;;;;;;;7.78;50.72;96637.62;109161;1272;36464;-84
2023/03/20 00:49:53;;;;;;;;;;;;;;;7.77;50.85;96632.82;109275;1272;22527;-84
2023/03/20 00:52:22;;;;;;;;;;;;;;;7.74;50.89;96633.80;109237;1272;22497;-84
2023/03/20 00:54:52;;;;;;;;;;;;;;;7.69;50.98;96638.63;109155;1272;24231;-83
2023/03/20 00:57:22;;;;;;;;;;;;;;;7.66;51.03;96634.09;109099;1272;93300;-84
2023/03/20 00:59:55;;;;;;;;;;;;;;;7.64;51.13;96632.83;109231;1272;22563;-84
2023/03/20 01:02:27;;;;;;;;;;;;;;;7.61;51.17;96631.70;109236;1272;22502;-84
2023/03/20 01:04:57;;;;;;;;;;;;;;;7.62;51.32;96630.23;109282;1267;22517;-84
2023/03/20 01:07:26;;;;;;;;;;;;;;;7.63;51.32;96632.45;109209;1272;27024;-84
2023/03/20 01:09:56;;;;;;;;;;;;;;;7.61;51.34;96628.81;109207;1272;25296;-84
2023/03/20 01:12:27;;;;;;;;;;;;;;;7.60;51.29;96625.69;109245;1268;24286;-84
2023/03/20 01:14:57;;;;;;;;;;;;;;;7.61;51.45;96624.95;109270;1269;22547;-84
2023/03/20 01:17:27;;;;;;;;;;;;;;;7.61;51.24;96628.23;109223;1272;34145;-84
2023/03/20 01:19:57;;;;;;;;;;;;;;;7.61;51.29;96624.90;109260;1260;22605;-84
2023/03/20 01:22:26;;;;;;;;;;;;;;;7.61;51.29;96630.50;109282;1272;22518;-84
2023/03/20 01:24:56;;;;;;;;;;;;;;;7.59;51.22;96634.86;109260;1271;22537;-84
2023/03/20 01:27:25;;;;;;;;;;;;;;;7.52;51.34;96635.15;109195;1266;91345;-84
2023/03/20 01:29:55;;;;;;;;;;;;;;;7.42;51.57;96637.15;109284;1272;25434;-84
2023/03/20 01:32:24;;;;;;;;;;;;;;;7.33;51.72;96637.23;109262;1269;22568;-84
2023/03/20 01:34:54;;;;;;;;;;;;;;;7.32;52.09;96635.11;109238;1266;22440;-85
2023/03/20 01:37:25;;;;;;;;;;;;;;;7.28;52.01;96631.03;107725;1272;2080675;-84
2023/03/20 01:39:56;;;;;;;;;;;;;;;7.45;51.74;96632.64;109248;1272;22984;-84
2023/03/20 01:42:35;;;;;;;;;;;;;;;7.56;51.53;96628.93;109236;1272;22541;-84
2023/03/20 01:45:13;;;;;;;;;;;;;;;7.59;51.37;96632.30;109197;1272;22633;-84
2023/03/20 01:47:43;;;;;;;;;;;;;;;7.60;51.03;96635.97;109251;1272;42375;-84
2023/03/20 01:50:25;;;;;;;;;;;;;;;7.62;50.98;96635.98;109226;1272;22648;-84
2023/03/20 01:52:58;;;;;;;;;;;;;;;7.59;51.07;96634.90;109263;1272;22504;-84
2023/03/20 01:55:28;;;;;;;;;;;;;;;7.53;51.02;96629.08;109246;1266;22527;-84
2023/03/20 01:58:00;;;;;;;;;;;;;;;7.46;51.12;96628.48;109240;1269;39732;-84
2023/03/20 02:00:30;;;;;;;;;;;;;;;7.34;51.65;96632.11;109286;1265;25414;-83
2023/03/20 02:03:00;;;;;;;;;;;;;;;6.99;52.25;96635.39;109191;1272;22546;-84
2023/03/20 02:05:30;;;;;;;;;;;;;;;6.73;52.84;96634.02;109208;1265;22836;-84
2023/03/20 02:08:06;;;;;;;;;;;;;;;6.64;52.88;96636.64;109205;1271;41906;-84
2023/03/20 02:10:35;;;;;;;;;;;;;;;6.54;53.26;96639.14;109260;1272;22538;-84
2023/03/20 02:13:07;;;;;;;;;;;;;;;6.50;53.75;96639.69;109250;1272;22516;-84
2023/03/20 02:15:51;;;;;;;;;;;;;;;6.64;53.39;96633.84;109267;1270;22508;-83
2023/03/20 02:18:21;;;;;;;;;;;;;;;6.90;52.98;96633.02;109228;1269;22489;-84
2023/03/20 02:21:05;;;;;;;;;;;;;;;7.00;52.81;96629.76;109237;1272;23125;-83
2023/03/20 02:23:48;;;;;;;;;;;;;;;6.91;52.77;96629.35;109272;1270;24364;-83
2023/03/20 02:26:22;;;;;;;;;;;;;;;6.89;52.92;96628.68;109252;1263;38653;-84
2023/03/20 02:29:05;;;;;;;;;;;;;;;6.82;53.12;96628.44;109266;1272;22523;-83
2023/03/20 02:31:47;;;;;;;;;;;;;;;6.78;53.21;96631.48;109265;1272;22497;-83
2023/03/20 02:34:22;;;;;;;;;;;;;;;6.86;53.05;96628.56;109234;1272;23825;-83
2023/03/20 02:37:03;;;;;;;;;;;;;;;6.89;53.09;96630.74;109192;1270;93963;-83
2023/03/20 02:39:41;;;;;;;;;;;;;;;6.75;53.57;96630.23;109246;1272;22455;-83
2023/03/20 02:42:17;;;;;;;;;;;;;;;6.62;54.07;96630.55;109258;1272;22504;-83
2023/03/20 02:44:53;;;;;;;;;;;;;;;6.50;54.24;96637.11;109202;1272;25414;-84
2023/03/20 02:47:26;;;;;;;;;;;;;;;6.56;53.96;96631.61;109232;1267;34873;-83
2023/03/20 02:50:02;;;;;;;;;;;;;;;6.70;53.76;96635.98;109268;1272;22553;-83
2023/03/20 02:52:36;;;;;;;;;;;;;;;6.81;53.46;96634.12;109235;1272;22501;-83
2023/03/20 02:55:10;;;;;;;;;;;;;;;6.90;53.38;96631.59;109233;1270;25268;-83
2023/03/20 02:57:44;;;;;;;;;;;;;;;6.91;53.28;96630.93;109224;1268;53608;-83
2023/03/20 03:00:15;;;;;;;;;;;;;;;6.94;53.31;96631.63;109275;1270;25371;-83
2023/03/20 03:02:48;;;;;;;;;;;;;;;6.93;53.14;96633.36;109267;1272;22547;-83
2023/03/20 03:05:21;;;;;;;;;;;;;;;6.90;53.27;96630.38;109261;1272;22494;-83
2023/03/20 03:07:52;;;;;;;;;;;;;;;6.87;53.32;96632.98;108263;1267;1307742;-83
2023/03/20 03:10:28;;;;;;;;;;;;;;;6.87;53.23;96629.62;109254;1269;22572;-83
2023/03/20 03:13:01;;;;;;;;;;;;;;;6.89;53.07;96629.36;109237;1272;22658;-83
2023/03/20 03:15:32;;;;;;;;;;;;;;;6.90;52.97;96629.38;109223;1272;22568;-83
2023/03/20 03:18:03;;;;;;;;;;;;;;;6.95;53.04;96626.58;109249;1272;61629;-83
2023/03/20 03:20:35;;;;;;;;;;;;;;;6.99;52.99;96627.95;109244;1272;22496;-83
2023/03/20 03:23:08;;;;;;;;;;;;;;;7.04;53.07;96618.83;109277;1269;22514;-83
2023/03/20 03:25:40;;;;;;;;;;;;;;;7.06;52.79;96619.22;109271;1272;22458;-83
2023/03/20 03:28:20;;;;;;;;;;;;;;;7.06;52.82;96621.80;109199;1270;49594;-83
2023/03/20 03:30:52;;;;;;;;;;;;;;;7.02;52.80;96620.23;109291;1269;25381;-83
2023/03/20 03:33:23;;;;;;;;;;;;;;;7.02;52.64;96621.86;109255;1272;22489;-83
2023/03/20 03:35:55;;;;;;;;;;;;;;;7.06;52.63;96621.33;109209;1264;26939;-83
2023/03/20 03:38:29;;;;;;;;;;;;;;;7.07;52.60;96620.16;109259;1269;22493;-83
2023/03/20 03:41:04;;;;;;;;;;;;;;;7.06;52.57;96620.11;109268;1265;22488;-83
2023/03/20 03:43:35;;;;;;;;;;;;;;;7.06;52.59;96617.89;109217;1272;22490;-83
2023/03/20 03:46:07;;;;;;;;;;;;;;;7.04;52.54;96625.67;109219;1266;37167;-83
2023/03/20 03:48:40;;;;;;;;;;;;;;;7.00;52.64;96621.85;109196;1272;23968;-83
2023/03/20 03:51:12;;;;;;;;;;;;;;;6.98;52.82;96624.53;109160;1273;22428;-83
2023/03/20 03:53:47;;;;;;;;;;;;;;;6.93;52.84;96620.77;109256;1272;24282;-83
2023/03/20 03:56:19;;;;;;;;;;;;;;;6.90;52.83;96620.91;109222;1272;32388;-83
2023/03/20 03:58:51;;;;;;;;;;;;;;;6.89;52.80;96621.94;109271;1270;23807;-83
2023/03/20 04:01:21;;;;;;;;;;;;;;;6.86;52.79;96621.70;109274;1272;22492;-83
2023/03/20 04:03:54;;;;;;;;;;;;;;;6.84;52.97;96624.13;109315;1267;25259;-83
2023/03/20 04:06:24;;;;;;;;;;;;;;;6.84;52.81;96623.65;109256;1272;108491;-83
2023/03/20 04:08:54;;;;;;;;;;;;;;;6.82;52.97;96619.48;109242;1272;22512;-83
2023/03/20 04:11:27;;;;;;;;;;;;;;;6.75;53.25;96618.84;109222;1272;22498;-83
2023/03/20 04:13:56;;;;;;;;;;;;;;;6.73;53.36;96618.35;109283;1267;22521;-83
2023/03/20 04:16:26;;;;;;;;;;;;;;;6.69;53.37;96621.86;109185;1272;50226;-83
2023/03/20 04:18:55;;;;;;;;;;;;;;;6.61;53.52;96620.74;109239;1267;22673;-83
2023/03/20 04:21:25;;;;;;;;;;;;;;;6.53;53.74;96618.80;109266;1267;25211;-83
2023/03/20 04:23:54;;;;;;;;;;;;;;;6.52;53.94;96620.11;109272;1267;22527;-83
2023/03/20 04:26:24;;;;;;;;;;;;;;;6.52;53.98;96621.21;109217;1272;60187;-83
2023/03/20 04:28:53;;;;;;;;;;;;;;;6.48;54.26;96622.48;109187;1272;22519;-83
2023/03/20 04:31:23;;;;;;;;;;;;;;;6.45;54.32;96620.09;109212;1272;22636;-83
2023/03/20 04:33:52;;;;;;;;;;;;;;;6.46;54.45;96623.36;109284;1272;22493;-83
2023/03/20 04:36:22;;;;;;;;;;;;;;;6.43;54.52;96620.23;109253;1270;47289;-83
2023/03/20 04:38:51;;;;;;;;;;;;;;;6.43;54.48;96617.44;109284;1270;23944;-82
2023/03/20 04:41:21;;;;;;;;;;;;;;;6.43;54.62;96623.19;109271;1272;22441;-83
2023/03/20 04:43:51;;;;;;;;;;;;;;;6.43;54.61;96625.02;109307;1267;22695;-83
2023/03/20 04:46:20;;;;;;;;;;;;;;;6.43;54.70;96625.76;109205;1272;99110;-82
2023/03/20 04:48:50;;;;;;;;;;;;;;;6.44;54.80;96620.77;109297;1272;22485;-83
2023/03/20 04:51:19;;;;;;;;;;;;;;;6.48;54.61;96619.60;109286;1272;23665;-83
2023/03/20 04:53:49;;;;;;;;;;;;;;;6.51;54.62;96619.41;109221;1270;22693;-82
2023/03/20 04:56:18;;;;;;;;;;;;;;;6.53;54.48;96621.27;109200;1272;112057;-83
2023/03/20 04:58:48;;;;;;;;;;;;;;;6.58;54.35;96623.25;109293;1268;22557;-85
2023/03/20 05:01:17;;;;;;;;;;;;;;;6.63;54.31;96624.40;109294;1270;22470;-86
2023/03/20 05:03:48;;;;;;;;;;;;;;;6.67;54.09;96622.85;109313;1267;23108;-85
2023/03/20 05:06:18;;;;;;;;;;;;;;;6.72;53.97;96623.66;109186;1266;63862;-83
2023/03/20 05:08:47;;;;;;;;;;;;;;;6.77;54.03;96626.30;109294;1272;22502;-84
2023/03/20 05:11:17;;;;;;;;;;;;;;;6.81;53.76;96624.11;109266;1272;22693;-83
2023/03/20 05:14:11;;;;;;;;;;;;;;;6.83;53.93;96617.80;109306;1267;22490;-83
2023/03/20 05:16:41;;;;;;;;;;;;;;;6.82;53.77;96627.60;109245;1270;73425;-83
2023/03/20 05:19:10;;;;;;;;;;;;;;;6.79;53.95;96626.00;109263;1272;22441;-83
2023/03/20 05:21:40;;;;;;;;;;;;;;;6.76;53.86;96619.02;109285;1269;22540;-83
2023/03/20 05:24:10;;;;;;;;;;;;;;;6.76;53.90;96621.39;109267;1261;23836;-84
2023/03/20 05:26:40;;;;;;;;;;;;;;;6.77;53.70;96617.98;109224;1269;58424;-83
2023/03/20 05:29:09;;;;;;;;;;;;;;;6.76;54.20;96621.17;109315;1272;23248;-86
2023/03/20 05:31:39;;;;;;;;;;;;;;;6.74;54.22;96620.62;109170;1272;22453;-83
2023/03/20 05:34:09;;;;;;;;;;;;;;;6.73;54.38;96617.40;109276;1272;22494;-83
2023/03/20 05:36:38;;;;;;;;;;;;;;;6.77;54.09;96612.45;109230;1272;74101;-83
2023/03/20 05:39:08;;;;;;;;;;;;;;;6.86;54.25;96621.92;109305;1272;22442;-83
2023/03/20 05:41:37;;;;;;;;;;;;;;;6.89;53.97;96622.25;109270;1270;22505;-83
2023/03/20 05:44:13;;;;;;;;;;;;;;;6.91;53.79;96627.98;109236;1269;22492;-83
2023/03/20 05:46:45;;;;;;;;;;;;;;;6.95;53.68;96630.36;109235;1267;34407;-83
2023/03/20 05:49:15;;;;;;;;;;;;;;;7.00;53.49;96630.76;109279;1272;25388;-83
2023/03/20 05:51:45;;;;;;;;;;;;;;;7.08;53.34;96628.45;109289;1272;22506;-84
2023/03/20 05:54:15;;;;;;;;;;;;;;;7.20;52.92;96628.30;109299;1269;22571;-83
2023/03/20 05:56:46;;;;;;;;;;;;;;;7.29;52.52;96619.48;109222;1271;49647;-83
2023/03/20 05:59:16;;;;;;;;;;;;;;;7.34;52.42;96633.48;109270;1267;22715;-84
2023/03/20 06:01:46;;;;;;;;;;;;;;;7.36;52.65;96635.66;109289;1269;22538;-84
2023/03/20 06:04:15;;;;;;;;;;;;;;;7.37;52.40;96630.08;109283;1270;22529;-83
2023/03/20 06:06:45;;;;;;;;;;;;;;;7.41;52.56;96634.45;109189;1272;64394;-83
2023/03/20 06:09:17;;;;;;;;;;;;;;;7.47;52.47;96634.72;109244;1266;25440;-83
2023/03/20 06:11:47;;;;;;;;;;;;;;;7.53;52.19;96637.84;109252;1271;22556;-83
2023/03/20 06:14:17;;;;;;;;;;;;;;;7.58;52.30;96637.00;109321;1272;22535;-83
2023/03/20 06:16:46;;;;;;;;;;;;;;;7.64;52.33;96639.58;109147;1270;121917;-83
2023/03/20 06:19:16;;;;;;;;;;;;;;;7.71;52.07;96638.53;109213;1272;24450;-83
2023/03/20 06:21:46;;;;;;;;;;;;;;;7.77;51.89;96644.33;109304;1272;22496;-83
2023/03/20 06:24:16;;;;;;;;;;;;;;;7.87;51.69;96642.70;109302;1266;22647;-83
2023/03/20 06:26:45;;;;;;;;;;;;;;;8.01;51.65;96648.09;109144;1272;81651;-85
2023/03/20 06:29:15;;;;;;;;;;;;;;;8.26;51.70;96649.77;109304;1266;22443;-85
2023/03/20 06:31:44;;;;;;;;;;;;;;;8.44;51.49;96649.34;109164;1266;22688;-82
2023/03/20 06:34:14;;;;;;;;;;;;;;;8.70;50.95;96649.41;109294;1272;24218;-85
2023/03/20 06:36:45;;;;;;;;;;;;;;;8.89;50.19;96651.04;109270;1272;42169;-84
2023/03/20 06:39:15;;;;;;;;;;;;;;;8.86;50.10;96650.82;109226;1272;22488;-82
2023/03/20 06:41:44;;;;;;;;;;;;;;;8.88;50.23;96657.85;109273;1272;23773;-82
2023/03/20 06:44:14;;;;;;;;;;;;;;;9.05;50.07;96661.39;109150;1272;22602;-82
2023/03/20 06:46:44;;;;;;;;;;;;;;;9.16;49.79;96663.59;109224;1272;26355;-81
2023/03/20 06:49:13;;;;;;;;;;;;;;;9.31;49.67;96667.48;109227;1272;22910;-82
2023/03/20 06:51:44;;;;;;;;;;;;;;;9.49;49.52;96670.55;109225;1272;23414;-82
2023/03/20 06:54:13;;;;;;;;;;;;;;;9.67;49.36;96677.90;109287;1272;22545;-82
2023/03/20 06:56:42;;;;;;;;;;;;;;;10.25;49.28;96675.79;109255;1272;51617;-82
2023/03/20 06:59:12;;;;;;;;;;;;;;;10.99;48.39;96671.51;109254;1272;23667;-82
2023/03/20 07:01:43;;;;;;;;;;;;;;;11.90;47.55;96677.15;109324;1272;22544;-82
2023/03/20 07:04:16;;;;;;;;;;;;;;;12.43;45.97;96675.83;109210;1272;22524;-82
2023/03/20 07:06:45;;;;;;;;;;;;;;;12.30;44.82;96673.41;109238;1272;53814;-83
2023/03/20 07:09:16;;;;;;;;;;;;;;;11.93;44.38;96677.27;109245;1272;22595;-83
2023/03/20 07:11:47;;;;;;;;;;;;;;;11.51;44.86;96680.30;109279;1272;25692;-82
2023/03/20 07:14:17;;;;;;;;;;;;;;;11.24;45.32;96673.94;109304;1272;22564;-83
2023/03/20 07:16:49;;;;;;;;;;;;;;;11.08;45.23;96673.50;109208;1272;83266;-82
2023/03/20 07:19:19;;;;;;;;;;;;;;;11.03;45.57;96673.50;109307;1260;22521;-82
2023/03/20 07:21:48;;;;;;;;;;;;;;;11.67;45.46;96674.33;109281;1272;25385;-82
2023/03/20 07:24:18;;;;;;;;;;;;;;;12.52;44.58;96666.60;109297;1272;22511;-82
2023/03/20 07:26:47;;;;;;;;;;;;;;;13.27;43.67;96667.89;109219;1272;109315;-82
2023/03/20 07:29:17;;;;;;;;;;;;;;;14.27;42.63;96654.59;109295;1267;22531;-82
2023/03/20 07:31:46;;;;;;;;;;;;;;;14.74;41.54;96659.52;109287;1267;22505;-82
2023/03/20 07:34:16;;;;;;;;;;;;;;;14.67;41.13;96660.91;109222;1272;22565;-82
2023/03/20 07:36:45;;;;;;;;;;;;;;;14.25;40.78;96656.48;109253;1266;36975;-82
2023/03/20 07:39:15;;;;;;;;;;;;;;;14.88;41.26;96654.58;109297;1272;22452;-83
2023/03/20 07:41:45;;;;;;;;;;;;;;;16.16;40.09;96657.52;109272;1260;22803;-83
2023/03/20 07:44:17;;;;;;;;;;;;;;;17.32;38.14;96657.10;109242;1269;22590;-82
2023/03/20 07:46:47;;;;;;;;;;;;;;;18.10;36.41;96657.23;109274;1266;41485;-82
2023/03/20 07:49:17;;;;;;;;;;;;;;;18.54;35.69;96649.86;109316;1269;24209;-81
2023/03/20 07:51:48;;;;;;;;;;;;;;;18.97;35.08;96648.17;109325;1272;22498;-82
2023/03/20 07:54:20;;;;;;;;;;;;;;;19.44;34.46;96646.60;109309;1272;22503;-81
2023/03/20 07:56:49;;;;;;;;;;;;;;;19.59;32.79;96648.14;109180;1269;65153;-82
2023/03/20 07:59:19;;;;;;;;;;;;;;;19.83;33.19;96655.26;109202;1272;22536;-82
2023/03/20 08:01:52;;;;;;;;;;;;;;;20.18;32.82;96657.58;109330;1270;22491;-82
2023/03/20 08:04:22;;;;;;;;;;;;;;;20.72;32.79;96654.58;109310;1272;22535;-82
2023/03/20 08:06:51;;;;;;;;;;;;;;;21.24;32.65;96654.45;109295;1265;38512;-82
2023/03/20 08:09:21;;;;;;;;;;;;;;;21.78;31.80;96654.87;109297;1266;22591;-82
2023/03/20 08:11:51;;;;;;;;;;;;;;;21.74;31.26;96657.55;109318;1272;22497;-82
2023/03/20 08:14:20;;;;;;;;;;;;;;;21.30;30.60;96657.61;109283;1265;22499;-81
2023/03/20 08:16:50;;;;;;;;;;;;;;;20.22;29.14;96656.30;107856;1272;1785954;-81
2023/03/20 08:19:20;;;;;;;;;;;;;;;19.79;30.44;96658.30;109276;1269;22569;-80
2023/03/20 08:21:51;;;;;;;;;;;;;;;19.77;30.04;96662.77;109324;1272;22449;-81
2023/03/20 08:24:20;;;;;;;;;;;;;;;19.41;30.02;96660.88;109300;1265;22532;-81
2023/03/20 08:26:50;;;;;;;;;;;;;;;18.77;30.21;96663.71;109268;1272;45407;-81
2023/03/20 08:29:20;;;;;;;;;;;;;;;18.80;31.51;96659.53;109220;1272;25377;-81
2023/03/20 08:31:49;;;;;;;;;;;;;;;19.45;31.31;96656.11;109211;1266;22496;-81
2023/03/20 08:34:19;;;;;;;;;;;;;;;19.77;30.85;96652.95;109318;1272;23672;-80
2023/03/20 08:36:48;;;;;;;;;;;;;;;19.93;31.51;96649.91;109260;1272;42914;-80
2023/03/20 08:39:17;;;;;;;;;;;;;;;21.17;31.17;96648.16;109309;1272;22556;-80
2023/03/20 08:41:47;;;;;;;;;;;;;;;21.38;30.01;96647.73;109290;1272;22447;-80
2023/03/20 08:44:16;;;;;;;;;;;;;;;21.25;29.84;96643.98;109158;1266;23831;-80
2023/03/20 08:46:46;;;;;;;;;;;;;;;20.96;30.31;96639.66;109215;1263;37043;-80
2023/03/20 08:49:16;;;;;;;;;;;;;;;21.07;29.93;96640.51;109308;1272;22552;-80
2023/03/20 08:51:45;;;;;;;;;;;;;;;20.31;29.57;96644.89;109237;1265;22584;-80
2023/03/20 08:54:17;;;;;;;;;;;;;;;18.96;30.96;96646.09;109299;1272;24006;-80
2023/03/20 08:56:46;;;;;;;;;;;;;;;18.97;31.14;96645.78;109244;1272;42012;-81
2023/03/20 08:59:16;;;;;;;;;;;;;;;18.24;32.01;96647.25;109235;1272;25473;-80
2023/03/20 09:01:45;;;;;;;;;;;;;;;17.94;32.89;96648.80;109262;1272;22474;-80
2023/03/20 09:04:16;;;;;;;;;;;;;;;18.66;33.51;96648.27;109316;1266;22512;-80
2023/03/20 09:06:46;;;;;;;;;;;;;;;18.53;32.43;96645.27;109253;1272;66438;-80
2023/03/20 09:09:18;;;;;;;;;;;;;;;17.47;32.98;96643.53;109325;1266;22590;-80
2023/03/20 09:11:48;;;;;;;;;;;;;;;16.61;34.90;96650.41;109264;1272;22499;-80
2023/03/20 09:14:17;;;;;;;;;;;;;;;16.02;35.36;96652.43;109321;1265;24616;-80
2023/03/20 09:16:47;;;;;;;;;;;;;;;15.25;36.33;96649.76;109265;1267;55489;-79
2023/03/20 09:19:17;;;;;;;;;;;;;;;14.75;37.36;96653.31;109287;1272;25393;-80
2023/03/20 09:21:47;;;;;;;;;;;;;;;14.71;38.28;96652.54;109309;1272;22551;-80
2023/03/20 09:24:17;;;;;;;;;;;;;;;14.62;37.77;96648.95;109315;1269;25404;-80
2023/03/20 09:26:46;;;;;;;;;;;;;;;14.28;38.30;96652.55;109097;1272;41598;-79
2023/03/20 09:29:16;;;;;;;;;;;;;;;14.36;39.05;96653.92;109305;1272;22443;-79
2023/03/20 09:31:46;;;;;;;;;;;;;;;14.63;39.36;96648.84;109273;1272;22505;-80
2023/03/20 09:34:15;;;;;;;;;;;;;;;14.91;38.72;96649.84;109318;1272;22541;-80
2023/03/20 09:36:45;;;;;;;;;;;;;;;14.95;38.64;96647.33;109267;1272;54328;-79
2023/03/20 09:39:14;;;;;;;;;;;;;;;15.03;38.55;96645.05;109217;1265;22975;-79
2023/03/20 09:41:47;;;;;;;;;;;;;;;14.94;38.90;96638.59;109272;1272;22895;-79
2023/03/20 09:44:25;;;;;;;;;;;;;;;14.86;38.66;96644.73;109265;1272;22686;-79
2023/03/20 09:47:00;;;;;;;;;;;;;;;14.89;39.32;96646.63;109172;1269;39973;-79
2023/03/20 09:49:38;;;;;;;;;;;;;;;14.90;39.01;96650.17;109309;1272;23261;-79
2023/03/20 09:52:16;;;;;;;;;;;;;;;14.73;39.19;96649.89;109298;1272;22488;-79
2023/03/20 09:54:47;;;;;;;;;;;;;;;14.61;39.89;96656.67;109259;1272;22518;-79
2023/03/20 09:57:20;;;;;;;;;;;;;;;14.57;39.44;96653.19;109247;1265;38902;-81
2023/03/20 09:59:53;;;;;;;;;;;;;;;14.37;39.50;96647.88;109320;1266;22444;-81
2023/03/20 10:02:25;;;;;;;;;;;;;;;14.38;40.18;96649.92;109327;1272;22533;-81
2023/03/20 10:04:56;;;;;;;;;;;;;;;14.49;40.05;96642.76;109294;1272;22523;-81
2023/03/20 10:07:26;;;;;;;;;;;;;;;14.63;40.24;96645.17;109293;1268;29162;-80
2023/03/20 10:09:55;;;;;;;;;;;;;;;14.60;39.94;96639.58;109324;1272;24644;-81
2023/03/20 10:12:47;;;;;;;;;;;;;;;14.47;39.98;96640.92;109326;1272;22466;-81
2023/03/20 10:15:20;;;;;;;;;;;;;;;14.43;40.35;96639.79;109335;1272;25262;-82
2023/03/20 10:17:57;;;;;;;;;;;;;;;14.59;40.66;96635.15;109246;1267;34877;-81
2023/03/20 10:20:30;;;;;;;;;;;;;;;15.10;40.48;96634.97;109337;1272;22907;-81
2023/03/20 10:23:04;;;;;;;;;;;;;;;15.49;39.67;96633.81;109303;1272;22442;-81
2023/03/20 10:25:36;;;;;;;;;;;;;;;15.66;39.80;96626.40;109302;1269;23559;-81
2023/03/20 10:28:10;;;;;;;;;;;;;;;15.51;38.86;96627.04;109295;1272;37262;-81
2023/03/20 10:30:51;;;;;;;;;;;;;;;15.20;39.57;96624.48;109370;1272;22722;-81
2023/03/20 10:33:26;;;;;;;;;;;;;;;14.78;40.35;96629.21;109335;1272;22654;-81
2023/03/20 10:36:01;;;;;;;;;;;;;;;14.64;40.63;96631.65;109253;1272;28677;-80
2023/03/20 10:38:37;;;;;;;;;;;;;;;14.61;41.04;96628.50;109264;1252;22680;-81
2023/03/20 10:41:09;;;;;;;;;;;;;;;14.62;41.08;96629.97;109232;1272;22504;-81
2023/03/20 10:43:40;;;;;;;;;;;;;;;14.54;41.12;96628.61;109284;1265;22502;-81
2023/03/20 10:46:14;;;;;;;;;;;;;;;14.28;41.93;96628.02;109262;1272;33182;-81
2023/03/20 10:48:45;;;;;;;;;;;;;;;14.17;42.74;96632.30;109302;1272;23152;-81
2023/03/20 10:51:16;;;;;;;;;;;;;;;14.28;42.61;96626.46;109304;1269;22531;-82
2023/03/20 10:53:47;;;;;;;;;;;;;;;14.30;42.71;96627.11;109271;1272;23138;-81
2023/03/20 10:56:21;;;;;;;;;;;;;;;14.20;43.09;96625.52;109180;1267;44330;-82
2023/03/20 10:58:54;;;;;;;;;;;;;;;14.20;43.70;96623.21;109332;1269;25930;-82
2023/03/20 11:01:24;;;;;;;;;;;;;;;14.25;44.07;96623.50;109362;1272;22428;-82
2023/03/20 11:03:56;;;;;;;;;;;;;;;14.25;44.24;96623.38;109277;1272;22533;-82
2023/03/20 11:06:28;;;;;;;;;;;;;;;14.28;44.40;96627.25;109270;1272;48369;-83
2023/03/20 11:09:08;;;;;;;;;;;;;;;14.38;44.21;96627.05;109243;1266;22533;-82
2023/03/20 11:11:43;;;;;;;;;;;;;;;14.49;44.77;96625.94;109306;1272;22492;-82
2023/03/20 11:14:18;;;;;;;;;;;;;;;14.72;43.66;96619.58;109318;1272;23828;-83
2023/03/20 11:16:50;;;;;;;;;;;;;;;14.71;43.36;96615.24;109223;1272;60682;-82
2023/03/20 11:19:21;;;;;;;;;;;;;;;14.83;43.57;96614.77;109309;1266;22495;-82
2023/03/20 11:21:52;;;;;;;;;;;;;;;14.97;42.82;96616.53;109309;1272;22498;-82
2023/03/20 11:24:26;;;;;;;;;;;;;;;14.88;42.57;96614.63;109291;1272;24295;-82
2023/03/20 11:27:05;;;;;;;;;;;;;;;14.75;42.83;96615.09;109278;1272;47775;-82
2023/03/20 11:29:35;;;;;;;;;;;;;;;14.56;43.70;96609.05;109307;1265;22448;-82
2023/03/20 11:32:06;;;;;;;;;;;;;;;14.54;44.01;96618.21;109302;1272;22723;-82
2023/03/20 11:34:42;;;;;;;;;;;;;;;14.60;43.92;96612.61;109294;1272;22670;-82
2023/03/20 11:37:21;;;;;;;;;;;;;;;14.72;44.40;96609.50;109248;1268;61623;-81
2023/03/20 11:39:56;;;;;;;;;;;;;;;14.90;44.62;96602.61;109325;1264;22488;-82
2023/03/20 11:42:26;;;;;;;;;;;;;;;14.90;44.35;96603.89;109301;1268;22433;-82
2023/03/20 11:45:00;;;;;;;;;;;;;;;14.75;44.43;96601.80;109255;1269;22556;-82
2023/03/20 11:47:32;;;;;;;;;;;;;;;14.55;44.52;96601.70;109260;1266;62379;-81
2023/03/20 11:50:04;;;;;;;;;;;;;;;14.26;45.06;96604.95;109298;1266;22457;-82
2023/03/20 11:52:35;;;;;;;;;;;;;;;13.95;45.55;96606.38;109290;1272;22563;-82
2023/03/20 11:55:07;;;;;;;;;;;;;;;13.74;45.99;96602.82;109278;1265;22505;-82
2023/03/20 11:57:38;;;;;;;;;;;;;;;13.66;46.28;96605.12;109282;1272;36973;-81
2023/03/20 12:00:17;;;;;;;;;;;;;;;13.53;46.68;96603.89;109301;1272;22509;-82
2023/03/20 12:02:46;;;;;;;;;;;;;;;13.39;47.13;96602.05;109282;1264;22742;-82
2023/03/20 12:05:29;;;;;;;;;;;;;;;13.40;47.19;96600.11;109273;1272;22479;-82
2023/03/20 12:08:02;;;;;;;;;;;;;;;13.39;47.44;96598.64;109212;1272;56745;-82
2023/03/20 12:10:35;;;;;;;;;;;;;;;13.32;47.96;96601.63;109312;1272;23791;-81
2023/03/20 12:13:11;;;;;;;;;;;;;;;13.17;48.33;96600.78;109264;1272;22488;-81
2023/03/20 12:15:42;;;;;;;;;;;;;;;13.19;48.39;96599.27;109274;1265;22526;-81
2023/03/20 12:18:15;;;;;;;;;;;;;;;13.26;48.41;96598.66;109246;1272;52500;-82
2023/03/20 12:20:46;;;;;;;;;;;;;;;13.34;48.64;96596.42;109279;1266;22543;-81
2023/03/20 12:23:21;;;;;;;;;;;;;;;13.50;48.52;96596.86;109277;1272;22488;-81
2023/03/20 12:25:54;;;;;;;;;;;;;;;13.72;48.46;96595.68;109287;1266;22590;-81
2023/03/20 12:28:28;;;;;;;;;;;;;;;13.94;48.24;96596.34;109295;1272;22607;-81
2023/03/20 12:31:05;;;;;;;;;;;;;;;13.95;47.91;96600.27;109318;1272;22460;-81
2023/03/20 12:33:38;;;;;;;;;;;;;;;14.07;48.00;96593.88;109284;1265;22514;-81
2023/03/20 12:36:12;;;;;;;;;;;;;;;14.07;47.87;96592.47;109244;1265;85562;-81
2023/03/20 12:38:42;;;;;;;;;;;;;;;14.03;48.13;96595.98;109281;1272;22540;-81
2023/03/20 12:41:14;;;;;;;;;;;;;;;14.04;48.09;96593.60;109241;1272;24372;-81
2023/03/20 12:43:52;;;;;;;;;;;;;;;14.11;48.18;96591.48;109148;1266;22507;-81
2023/03/20 12:46:26;;;;;;;;;;;;;;;14.16;48.19;96594.17;109155;1272;30422;-81
2023/03/20 12:49:01;;;;;;;;;;;;;;;14.12;48.71;96591.27;109171;1272;26015;-81
2023/03/20 12:51:36;;;;;;;;;;;;;;;14.02;49.04;96595.16;109291;1269;22516;-81
2023/03/20 12:54:15;;;;;;;;;;;;;;;13.92;49.35;96594.50;109188;1272;22496;-81
2023/03/20 12:56:54;;;;;;;;;;;;;;;13.88;49.63;96592.77;109190;1272;57159;-81
2023/03/20 12:59:27;;;;;;;;;;;;;;;13.88;50.01;96594.64;109296;1272;23195;-81
2023/03/20 13:01:59;;;;;;;;;;;;;;;13.88;49.90;96590.33;109286;1272;22582;-81
2023/03/20 13:04:40;;;;;;;;;;;;;;;13.88;50.36;96597.04;109313;1272;22499;-81